sensor_id;sensor_type;location;lat;lon;timestamp;P1;durP1;ratioP1;P2;durP2;ratioP2
13805;SDS011;6974;53.606;9.872;2024-01-10T00:01:42;29.37;;;15.17;;
13805;SDS011;6974;53.606;9.872;2024-01-10T00:04:09;32.73;;;14.90;;
13805;SDS011;6974;53.606;9.872;2024-01-10T00:06:36;25.93;;;12.03;;
13805;SDS011;6974;53.606;9.872;2024-01-10T00:09:03;25.10;;;11.70;;
13805;SDS011;6974;53.606;9.872;2024-01-10T00:11:31;16.60;;;10.93;;
13805;SDS011;6974;53.606;9.872;2024-01-10T00:13:58;19.37;;;11.73;;
13805;SDS011;6974;53.606;9.872;2024-01-10T00:16:24;19.23;;;12.33;;
13805;SDS011;6974;53.606;9.872;2024-01-10T00:18:51;19.93;;;12.57;;
13805;SDS011;6974;53.606;9.872;2024-01-10T00:21:18;21.57;;;12.30;;
13805;SDS011;6974;53.606;9.872;2024-01-10T00:23:45;22.70;;;12.03;;
13805;SDS011;6974;53.606;9.872;2024-01-10T00:26:12;27.40;;;12.00;;
13805;SDS011;6974;53.606;9.872;2024-01-10T00:28:40;16.93;;;10.80;;
13805;SDS011;6974;53.606;9.872;2024-01-10T00:31:07;19.30;;;12.20;;
13805;SDS011;6974;53.606;9.872;2024-01-10T00:33:34;21.77;;;12.80;;
13805;SDS011;6974;53.606;9.872;2024-01-10T00:36:01;19.50;;;10.50;;
13805;SDS011;6974;53.606;9.872;2024-01-10T00:38:28;19.67;;;12.30;;
13805;SDS011;6974;53.606;9.872;2024-01-10T00:40:55;21.17;;;12.07;;
13805;SDS011;6974;53.606;9.872;2024-01-10T00:43:22;30.93;;;12.57;;
13805;SDS011;6974;53.606;9.872;2024-01-10T00:45:50;20.07;;;11.63;;
13805;SDS011;6974;53.606;9.872;2024-01-10T00:48:17;18.80;;;11.77;;
13805;SDS011;6974;53.606;9.872;2024-01-10T00:50:44;20.97;;;11.50;;
13805;SDS011;6974;53.606;9.872;2024-01-10T00:53:11;22.53;;;12.17;;
13805;SDS011;6974;53.606;9.872;2024-01-10T00:55:38;22.93;;;13.23;;
13805;SDS011;6974;53.606;9.872;2024-01-10T00:58:05;24.50;;;13.77;;
13805;SDS011;6974;53.606;9.872;2024-01-10T01:00:32;22.00;;;12.83;;
13805;SDS011;6974;53.606;9.872;2024-01-10T01:03:00;24.87;;;13.47;;
13805;SDS011;6974;53.606;9.872;2024-01-10T01:05:27;23.73;;;13.03;;
13805;SDS011;6974;53.606;9.872;2024-01-10T01:07:54;22.83;;;13.20;;
13805;SDS011;6974;53.606;9.872;2024-01-10T01:10:21;22.70;;;13.13;;
13805;SDS011;6974;53.606;9.872;2024-01-10T01:12:47;23.23;;;13.70;;
13805;SDS011;6974;53.606;9.872;2024-01-10T01:15:14;26.00;;;14.47;;
13805;SDS011;6974;53.606;9.872;2024-01-10T01:17:41;20.50;;;13.17;;
13805;SDS011;6974;53.606;9.872;2024-01-10T01:20:10;22.97;;;13.30;;
13805;SDS011;6974;53.606;9.872;2024-01-10T01:22:36;21.77;;;12.90;;
13805;SDS011;6974;53.606;9.872;2024-01-10T01:25:03;21.23;;;12.60;;
13805;SDS011;6974;53.606;9.872;2024-01-10T01:27:31;19.70;;;12.07;;
13805;SDS011;6974;53.606;9.872;2024-01-10T01:29:58;20.43;;;12.47;;
13805;SDS011;6974;53.606;9.872;2024-01-10T01:32:24;18.87;;;12.17;;
13805;SDS011;6974;53.606;9.872;2024-01-10T01:34:51;19.77;;;12.27;;
13805;SDS011;6974;53.606;9.872;2024-01-10T01:37:19;21.17;;;12.67;;
13805;SDS011;6974;53.606;9.872;2024-01-10T01:39:46;20.63;;;13.03;;
13805;SDS011;6974;53.606;9.872;2024-01-10T01:42:13;20.37;;;12.53;;
13805;SDS011;6974;53.606;9.872;2024-01-10T01:44:41;19.60;;;11.50;;
13805;SDS011;6974;53.606;9.872;2024-01-10T01:47:08;21.47;;;13.20;;
13805;SDS011;6974;53.606;9.872;2024-01-10T01:49:35;21.57;;;13.83;;
13805;SDS011;6974;53.606;9.872;2024-01-10T01:52:02;20.73;;;12.27;;
13805;SDS011;6974;53.606;9.872;2024-01-10T01:54:32;20.63;;;13.03;;
13805;SDS011;6974;53.606;9.872;2024-01-10T01:56:59;22.70;;;14.17;;
13805;SDS011;6974;53.606;9.872;2024-01-10T01:59:26;27.13;;;13.93;;
13805;SDS011;6974;53.606;9.872;2024-01-10T02:01:54;21.80;;;13.30;;
13805;SDS011;6974;53.606;9.872;2024-01-10T02:04:21;21.40;;;13.17;;
13805;SDS011;6974;53.606;9.872;2024-01-10T02:06:49;21.03;;;13.40;;
13805;SDS011;6974;53.606;9.872;2024-01-10T02:09:16;20.37;;;13.27;;
13805;SDS011;6974;53.606;9.872;2024-01-10T02:11:45;21.30;;;12.23;;
13805;SDS011;6974;53.606;9.872;2024-01-10T02:14:12;22.03;;;12.83;;
13805;SDS011;6974;53.606;9.872;2024-01-10T02:16:38;20.93;;;12.70;;
13805;SDS011;6974;53.606;9.872;2024-01-10T02:19:17;20.60;;;14.17;;
13805;SDS011;6974;53.606;9.872;2024-01-10T02:21:44;22.10;;;12.87;;
13805;SDS011;6974;53.606;9.872;2024-01-10T02:24:11;26.37;;;13.03;;
13805;SDS011;6974;53.606;9.872;2024-01-10T02:26:39;17.60;;;12.20;;
13805;SDS011;6974;53.606;9.872;2024-01-10T02:29:07;20.13;;;13.00;;
13805;SDS011;6974;53.606;9.872;2024-01-10T02:31:33;21.80;;;13.30;;
13805;SDS011;6974;53.606;9.872;2024-01-10T02:34:00;19.77;;;11.87;;
13805;SDS011;6974;53.606;9.872;2024-01-10T02:36:27;18.90;;;12.03;;
13805;SDS011;6974;53.606;9.872;2024-01-10T02:38:54;24.40;;;13.20;;
13805;SDS011;6974;53.606;9.872;2024-01-10T02:41:21;20.00;;;12.37;;
13805;SDS011;6974;53.606;9.872;2024-01-10T02:43:49;18.60;;;12.03;;
13805;SDS011;6974;53.606;9.872;2024-01-10T02:46:16;21.93;;;13.87;;
13805;SDS011;6974;53.606;9.872;2024-01-10T02:48:43;20.87;;;13.20;;
13805;SDS011;6974;53.606;9.872;2024-01-10T02:51:10;19.47;;;11.53;;
13805;SDS011;6974;53.606;9.872;2024-01-10T02:53:37;19.60;;;12.20;;
13805;SDS011;6974;53.606;9.872;2024-01-10T02:56:04;25.03;;;14.07;;
13805;SDS011;6974;53.606;9.872;2024-01-10T02:58:32;24.20;;;14.40;;
13805;SDS011;6974;53.606;9.872;2024-01-10T03:01:00;24.77;;;14.17;;
13805;SDS011;6974;53.606;9.872;2024-01-10T03:03:27;22.23;;;14.43;;
13805;SDS011;6974;53.606;9.872;2024-01-10T03:05:53;21.13;;;13.83;;
13805;SDS011;6974;53.606;9.872;2024-01-10T03:08:20;23.50;;;13.63;;
13805;SDS011;6974;53.606;9.872;2024-01-10T03:10:47;24.80;;;14.80;;
13805;SDS011;6974;53.606;9.872;2024-01-10T03:13:14;24.53;;;14.17;;
13805;SDS011;6974;53.606;9.872;2024-01-10T03:15:41;23.87;;;14.43;;
13805;SDS011;6974;53.606;9.872;2024-01-10T03:18:09;23.53;;;14.70;;
13805;SDS011;6974;53.606;9.872;2024-01-10T03:20:36;25.03;;;14.57;;
13805;SDS011;6974;53.606;9.872;2024-01-10T03:23:03;22.97;;;14.50;;
13805;SDS011;6974;53.606;9.872;2024-01-10T03:25:30;25.10;;;15.17;;
13805;SDS011;6974;53.606;9.872;2024-01-10T03:27:56;22.27;;;14.03;;
13805;SDS011;6974;53.606;9.872;2024-01-10T03:30:23;21.70;;;13.67;;
13805;SDS011;6974;53.606;9.872;2024-01-10T03:32:50;25.90;;;15.00;;
13805;SDS011;6974;53.606;9.872;2024-01-10T03:35:18;21.53;;;14.13;;
13805;SDS011;6974;53.606;9.872;2024-01-10T03:37:45;22.77;;;14.77;;
13805;SDS011;6974;53.606;9.872;2024-01-10T03:40:12;23.77;;;13.93;;
13805;SDS011;6974;53.606;9.872;2024-01-10T03:42:39;23.10;;;14.67;;
13805;SDS011;6974;53.606;9.872;2024-01-10T03:45:06;24.37;;;14.90;;
13805;SDS011;6974;53.606;9.872;2024-01-10T03:47:33;22.03;;;14.87;;
13805;SDS011;6974;53.606;9.872;2024-01-10T03:49:59;26.17;;;14.97;;
13805;SDS011;6974;53.606;9.872;2024-01-10T03:52:28;25.30;;;16.23;;
13805;SDS011;6974;53.606;9.872;2024-01-10T03:54:55;23.80;;;14.27;;
13805;SDS011;6974;53.606;9.872;2024-01-10T03:57:22;25.80;;;14.97;;
13805;SDS011;6974;53.606;9.872;2024-01-10T03:59:49;24.30;;;15.17;;
13805;SDS011;6974;53.606;9.872;2024-01-10T04:02:16;24.30;;;14.93;;
13805;SDS011;6974;53.606;9.872;2024-01-10T04:04:43;22.90;;;15.43;;
13805;SDS011;6974;53.606;9.872;2024-01-10T04:07:10;21.53;;;14.57;;
13805;SDS011;6974;53.606;9.872;2024-01-10T04:09:38;24.07;;;15.07;;
13805;SDS011;6974;53.606;9.872;2024-01-10T04:12:05;24.60;;;16.17;;
13805;SDS011;6974;53.606;9.872;2024-01-10T04:14:32;25.90;;;15.10;;
13805;SDS011;6974;53.606;9.872;2024-01-10T04:16:59;28.50;;;16.83;;
13805;SDS011;6974;53.606;9.872;2024-01-10T04:19:28;26.03;;;15.73;;
13805;SDS011;6974;53.606;9.872;2024-01-10T04:21:55;24.73;;;16.10;;
13805;SDS011;6974;53.606;9.872;2024-01-10T04:24:22;23.70;;;15.17;;
13805;SDS011;6974;53.606;9.872;2024-01-10T04:26:50;24.07;;;14.57;;
13805;SDS011;6974;53.606;9.872;2024-01-10T04:29:17;24.77;;;14.90;;
13805;SDS011;6974;53.606;9.872;2024-01-10T04:31:44;29.00;;;17.27;;
13805;SDS011;6974;53.606;9.872;2024-01-10T04:34:10;24.73;;;15.80;;
13805;SDS011;6974;53.606;9.872;2024-01-10T04:39:07;24.47;;;15.10;;
13805;SDS011;6974;53.606;9.872;2024-01-10T04:41:34;25.50;;;15.17;;
13805;SDS011;6974;53.606;9.872;2024-01-10T04:44:02;24.50;;;15.03;;
13805;SDS011;6974;53.606;9.872;2024-01-10T04:46:29;22.60;;;15.30;;
13805;SDS011;6974;53.606;9.872;2024-01-10T04:48:56;21.83;;;14.40;;
13805;SDS011;6974;53.606;9.872;2024-01-10T04:51:23;22.70;;;14.87;;
13805;SDS011;6974;53.606;9.872;2024-01-10T04:53:50;25.40;;;15.53;;
13805;SDS011;6974;53.606;9.872;2024-01-10T04:56:17;19.60;;;13.33;;
13805;SDS011;6974;53.606;9.872;2024-01-10T04:58:45;21.67;;;14.67;;
13805;SDS011;6974;53.606;9.872;2024-01-10T05:01:14;19.83;;;14.03;;
13805;SDS011;6974;53.606;9.872;2024-01-10T05:03:41;16.10;;;10.90;;
13805;SDS011;6974;53.606;9.872;2024-01-10T05:06:08;16.40;;;10.87;;
13805;SDS011;6974;53.606;9.872;2024-01-10T05:08:35;15.57;;;10.53;;
13805;SDS011;6974;53.606;9.872;2024-01-10T05:11:03;14.10;;;9.57;;
13805;SDS011;6974;53.606;9.872;2024-01-10T05:13:30;13.83;;;8.90;;
13805;SDS011;6974;53.606;9.872;2024-01-10T05:15:57;14.67;;;9.17;;
13805;SDS011;6974;53.606;9.872;2024-01-10T05:18:25;14.30;;;9.33;;
13805;SDS011;6974;53.606;9.872;2024-01-10T05:20:52;14.43;;;9.63;;
13805;SDS011;6974;53.606;9.872;2024-01-10T05:23:19;12.47;;;9.27;;
13805;SDS011;6974;53.606;9.872;2024-01-10T05:25:46;12.03;;;8.53;;
13805;SDS011;6974;53.606;9.872;2024-01-10T05:28:13;13.37;;;9.43;;
13805;SDS011;6974;53.606;9.872;2024-01-10T05:30:40;13.57;;;10.03;;
13805;SDS011;6974;53.606;9.872;2024-01-10T05:33:07;14.57;;;10.10;;
13805;SDS011;6974;53.606;9.872;2024-01-10T05:35:37;16.33;;;10.17;;
13805;SDS011;6974;53.606;9.872;2024-01-10T05:38:04;15.07;;;9.67;;
13805;SDS011;6974;53.606;9.872;2024-01-10T05:40:32;12.00;;;8.40;;
13805;SDS011;6974;53.606;9.872;2024-01-10T05:42:59;17.23;;;10.40;;
13805;SDS011;6974;53.606;9.872;2024-01-10T05:45:26;19.67;;;11.73;;
13805;SDS011;6974;53.606;9.872;2024-01-10T05:47:53;13.67;;;8.73;;
13805;SDS011;6974;53.606;9.872;2024-01-10T05:50:21;16.33;;;10.73;;
13805;SDS011;6974;53.606;9.872;2024-01-10T05:52:50;16.70;;;10.33;;
13805;SDS011;6974;53.606;9.872;2024-01-10T05:55:17;14.97;;;9.67;;
13805;SDS011;6974;53.606;9.872;2024-01-10T05:57:44;14.03;;;9.37;;
13805;SDS011;6974;53.606;9.872;2024-01-10T06:00:12;14.53;;;9.63;;
13805;SDS011;6974;53.606;9.872;2024-01-10T06:02:41;12.60;;;8.67;;
13805;SDS011;6974;53.606;9.872;2024-01-10T06:05:09;14.20;;;9.37;;
13805;SDS011;6974;53.606;9.872;2024-01-10T06:07:37;13.17;;;9.20;;
13805;SDS011;6974;53.606;9.872;2024-01-10T06:10:06;14.70;;;9.43;;
13805;SDS011;6974;53.606;9.872;2024-01-10T06:12:35;10.80;;;7.73;;
13805;SDS011;6974;53.606;9.872;2024-01-10T06:15:03;13.97;;;9.47;;
13805;SDS011;6974;53.606;9.872;2024-01-10T06:17:31;11.63;;;8.20;;
13805;SDS011;6974;53.606;9.872;2024-01-10T06:19:58;12.07;;;8.33;;
13805;SDS011;6974;53.606;9.872;2024-01-10T06:22:26;12.83;;;8.73;;
13805;SDS011;6974;53.606;9.872;2024-01-10T06:24:53;12.53;;;8.23;;
13805;SDS011;6974;53.606;9.872;2024-01-10T06:27:22;12.57;;;8.57;;
13805;SDS011;6974;53.606;9.872;2024-01-10T06:29:49;13.17;;;7.87;;
13805;SDS011;6974;53.606;9.872;2024-01-10T06:32:16;11.73;;;8.83;;
13805;SDS011;6974;53.606;9.872;2024-01-10T06:34:43;14.73;;;9.87;;
13805;SDS011;6974;53.606;9.872;2024-01-10T06:37:10;14.70;;;8.30;;
13805;SDS011;6974;53.606;9.872;2024-01-10T06:39:37;12.90;;;8.70;;
13805;SDS011;6974;53.606;9.872;2024-01-10T06:42:04;12.60;;;8.20;;
13805;SDS011;6974;53.606;9.872;2024-01-10T06:44:35;11.90;;;8.47;;
13805;SDS011;6974;53.606;9.872;2024-01-10T06:47:02;15.77;;;9.73;;
13805;SDS011;6974;53.606;9.872;2024-01-10T06:49:30;14.13;;;8.87;;
13805;SDS011;6974;53.606;9.872;2024-01-10T06:51:57;13.10;;;8.47;;
13805;SDS011;6974;53.606;9.872;2024-01-10T06:54:25;12.40;;;8.57;;
13805;SDS011;6974;53.606;9.872;2024-01-10T06:56:52;13.60;;;9.13;;
13805;SDS011;6974;53.606;9.872;2024-01-10T06:59:19;12.87;;;9.07;;
13805;SDS011;6974;53.606;9.872;2024-01-10T07:01:52;14.80;;;9.10;;
13805;SDS011;6974;53.606;9.872;2024-01-10T07:04:21;13.83;;;9.30;;
13805;SDS011;6974;53.606;9.872;2024-01-10T07:06:49;13.43;;;9.70;;
13805;SDS011;6974;53.606;9.872;2024-01-10T07:09:16;15.40;;;9.50;;
13805;SDS011;6974;53.606;9.872;2024-01-10T07:11:44;16.37;;;10.77;;
13805;SDS011;6974;53.606;9.872;2024-01-10T07:14:12;14.60;;;9.37;;
13805;SDS011;6974;53.606;9.872;2024-01-10T07:16:40;11.73;;;7.27;;
13805;SDS011;6974;53.606;9.872;2024-01-10T07:19:09;13.90;;;9.17;;
13805;SDS011;6974;53.606;9.872;2024-01-10T07:21:38;11.90;;;8.93;;
13805;SDS011;6974;53.606;9.872;2024-01-10T07:24:06;11.37;;;8.50;;
13805;SDS011;6974;53.606;9.872;2024-01-10T07:26:35;12.20;;;8.73;;
13805;SDS011;6974;53.606;9.872;2024-01-10T07:29:02;12.40;;;8.33;;
13805;SDS011;6974;53.606;9.872;2024-01-10T07:31:29;12.03;;;7.80;;
13805;SDS011;6974;53.606;9.872;2024-01-10T07:33:56;9.83;;;7.87;;
13805;SDS011;6974;53.606;9.872;2024-01-10T07:36:26;11.00;;;8.87;;
13805;SDS011;6974;53.606;9.872;2024-01-10T07:38:55;9.53;;;7.93;;
13805;SDS011;6974;53.606;9.872;2024-01-10T07:41:23;11.13;;;7.63;;
13805;SDS011;6974;53.606;9.872;2024-01-10T07:43:50;9.10;;;7.27;;
13805;SDS011;6974;53.606;9.872;2024-01-10T07:46:17;12.13;;;7.43;;
13805;SDS011;6974;53.606;9.872;2024-01-10T07:48:44;11.17;;;7.87;;
13805;SDS011;6974;53.606;9.872;2024-01-10T07:51:12;9.27;;;7.57;;
13805;SDS011;6974;53.606;9.872;2024-01-10T07:53:41;12.10;;;8.50;;
13805;SDS011;6974;53.606;9.872;2024-01-10T07:56:08;10.43;;;8.13;;
13805;SDS011;6974;53.606;9.872;2024-01-10T07:58:35;11.20;;;8.47;;
13805;SDS011;6974;53.606;9.872;2024-01-10T08:01:02;11.30;;;9.00;;
13805;SDS011;6974;53.606;9.872;2024-01-10T08:03:29;10.23;;;7.83;;
13805;SDS011;6974;53.606;9.872;2024-01-10T08:05:56;12.37;;;9.13;;
13805;SDS011;6974;53.606;9.872;2024-01-10T08:08:24;13.13;;;9.20;;
13805;SDS011;6974;53.606;9.872;2024-01-10T08:10:53;12.40;;;9.17;;
13805;SDS011;6974;53.606;9.872;2024-01-10T08:13:20;13.57;;;9.73;;
13805;SDS011;6974;53.606;9.872;2024-01-10T08:15:47;11.80;;;8.90;;
13805;SDS011;6974;53.606;9.872;2024-01-10T08:18:14;10.50;;;8.33;;
13805;SDS011;6974;53.606;9.872;2024-01-10T08:20:44;12.70;;;9.17;;
13805;SDS011;6974;53.606;9.872;2024-01-10T08:23:11;12.30;;;8.80;;
13805;SDS011;6974;53.606;9.872;2024-01-10T08:25:38;15.10;;;8.63;;
13805;SDS011;6974;53.606;9.872;2024-01-10T08:28:07;10.03;;;7.90;;
13805;SDS011;6974;53.606;9.872;2024-01-10T08:30:35;11.80;;;9.33;;
13805;SDS011;6974;53.606;9.872;2024-01-10T08:33:02;12.33;;;8.73;;
13805;SDS011;6974;53.606;9.872;2024-01-10T08:35:30;9.57;;;8.00;;
13805;SDS011;6974;53.606;9.872;2024-01-10T08:37:58;12.60;;;9.20;;
13805;SDS011;6974;53.606;9.872;2024-01-10T08:40:25;11.27;;;8.47;;
13805;SDS011;6974;53.606;9.872;2024-01-10T08:42:52;11.53;;;8.47;;
13805;SDS011;6974;53.606;9.872;2024-01-10T08:45:24;12.30;;;9.10;;
13805;SDS011;6974;53.606;9.872;2024-01-10T08:47:52;10.57;;;9.27;;
13805;SDS011;6974;53.606;9.872;2024-01-10T08:50:20;11.33;;;9.03;;
13805;SDS011;6974;53.606;9.872;2024-01-10T08:52:47;11.53;;;8.77;;
13805;SDS011;6974;53.606;9.872;2024-01-10T08:55:14;13.13;;;8.93;;
13805;SDS011;6974;53.606;9.872;2024-01-10T08:57:41;11.67;;;9.07;;
13805;SDS011;6974;53.606;9.872;2024-01-10T09:00:08;12.53;;;8.63;;
13805;SDS011;6974;53.606;9.872;2024-01-10T09:02:39;12.27;;;10.00;;
13805;SDS011;6974;53.606;9.872;2024-01-10T09:05:06;13.90;;;9.90;;
13805;SDS011;6974;53.606;9.872;2024-01-10T09:07:35;12.53;;;9.93;;
13805;SDS011;6974;53.606;9.872;2024-01-10T09:10:03;11.40;;;8.97;;
13805;SDS011;6974;53.606;9.872;2024-01-10T09:12:32;14.67;;;9.73;;
13805;SDS011;6974;53.606;9.872;2024-01-10T09:14:59;16.83;;;11.73;;
13805;SDS011;6974;53.606;9.872;2024-01-10T09:17:28;13.23;;;10.37;;
13805;SDS011;6974;53.606;9.872;2024-01-10T09:19:56;16.07;;;11.23;;
13805;SDS011;6974;53.606;9.872;2024-01-10T09:22:23;13.30;;;10.60;;
13805;SDS011;6974;53.606;9.872;2024-01-10T09:24:50;15.17;;;11.23;;
13805;SDS011;6974;53.606;9.872;2024-01-10T09:27:19;13.93;;;9.90;;
13805;SDS011;6974;53.606;9.872;2024-01-10T09:29:47;13.23;;;9.97;;
13805;SDS011;6974;53.606;9.872;2024-01-10T09:32:14;14.40;;;11.07;;
13805;SDS011;6974;53.606;9.872;2024-01-10T09:34:41;13.37;;;10.53;;
13805;SDS011;6974;53.606;9.872;2024-01-10T09:37:10;16.67;;;11.30;;
13805;SDS011;6974;53.606;9.872;2024-01-10T09:39:37;16.50;;;11.93;;
13805;SDS011;6974;53.606;9.872;2024-01-10T09:42:04;18.80;;;12.37;;
13805;SDS011;6974;53.606;9.872;2024-01-10T09:44:32;16.47;;;11.97;;
13805;SDS011;6974;53.606;9.872;2024-01-10T09:46:59;17.90;;;11.77;;
13805;SDS011;6974;53.606;9.872;2024-01-10T09:49:30;16.13;;;12.37;;
13805;SDS011;6974;53.606;9.872;2024-01-10T09:51:59;15.27;;;11.27;;
13805;SDS011;6974;53.606;9.872;2024-01-10T09:54:31;16.57;;;10.67;;
13805;SDS011;6974;53.606;9.872;2024-01-10T09:57:00;14.97;;;11.20;;
13805;SDS011;6974;53.606;9.872;2024-01-10T09:59:28;15.27;;;10.77;;
13805;SDS011;6974;53.606;9.872;2024-01-10T10:01:55;13.50;;;9.93;;
13805;SDS011;6974;53.606;9.872;2024-01-10T10:04:24;13.80;;;10.23;;
13805;SDS011;6974;53.606;9.872;2024-01-10T10:06:57;14.17;;;11.03;;
13805;SDS011;6974;53.606;9.872;2024-01-10T10:09:26;14.27;;;10.37;;
13805;SDS011;6974;53.606;9.872;2024-01-10T10:11:56;14.23;;;10.33;;
13805;SDS011;6974;53.606;9.872;2024-01-10T10:14:23;16.00;;;11.73;;
13805;SDS011;6974;53.606;9.872;2024-01-10T10:16:54;16.03;;;11.90;;
13805;SDS011;6974;53.606;9.872;2024-01-10T10:19:24;16.77;;;12.37;;
13805;SDS011;6974;53.606;9.872;2024-01-10T10:21:51;15.90;;;11.77;;
13805;SDS011;6974;53.606;9.872;2024-01-10T10:24:18;16.40;;;11.87;;
13805;SDS011;6974;53.606;9.872;2024-01-10T10:26:46;18.80;;;12.40;;
13805;SDS011;6974;53.606;9.872;2024-01-10T10:29:18;15.47;;;11.73;;
13805;SDS011;6974;53.606;9.872;2024-01-10T10:31:47;13.47;;;11.13;;
13805;SDS011;6974;53.606;9.872;2024-01-10T10:34:15;13.47;;;10.93;;
13805;SDS011;6974;53.606;9.872;2024-01-10T10:36:47;14.30;;;11.10;;
13805;SDS011;6974;53.606;9.872;2024-01-10T10:39:15;14.87;;;11.10;;
13805;SDS011;6974;53.606;9.872;2024-01-10T10:41:42;16.87;;;12.83;;
13805;SDS011;6974;53.606;9.872;2024-01-10T10:44:12;13.93;;;11.07;;
13805;SDS011;6974;53.606;9.872;2024-01-10T10:46:47;16.70;;;11.97;;
13805;SDS011;6974;53.606;9.872;2024-01-10T10:49:15;16.83;;;11.83;;
13805;SDS011;6974;53.606;9.872;2024-01-10T10:51:46;15.87;;;11.90;;
13805;SDS011;6974;53.606;9.872;2024-01-10T10:54:14;14.83;;;10.83;;
13805;SDS011;6974;53.606;9.872;2024-01-10T10:56:43;16.43;;;12.40;;
13805;SDS011;6974;53.606;9.872;2024-01-10T10:59:11;15.27;;;11.63;;
13805;SDS011;6974;53.606;9.872;2024-01-10T11:01:41;14.93;;;12.00;;
13805;SDS011;6974;53.606;9.872;2024-01-10T11:04:11;18.43;;;12.80;;
13805;SDS011;6974;53.606;9.872;2024-01-10T11:06:40;17.03;;;12.67;;
13805;SDS011;6974;53.606;9.872;2024-01-10T11:09:08;15.90;;;12.27;;
13805;SDS011;6974;53.606;9.872;2024-01-10T11:11:39;18.33;;;13.37;;
13805;SDS011;6974;53.606;9.872;2024-01-10T11:14:31;18.13;;;12.27;;
13805;SDS011;6974;53.606;9.872;2024-01-10T11:20:16;14.17;;;11.20;;
13805;SDS011;6974;53.606;9.872;2024-01-10T11:26:04;14.60;;;10.53;;
13805;SDS011;6974;53.606;9.872;2024-01-10T11:28:33;13.60;;;10.10;;
13805;SDS011;6974;53.606;9.872;2024-01-10T11:31:02;13.63;;;10.17;;
13805;SDS011;6974;53.606;9.872;2024-01-10T11:33:32;14.93;;;10.13;;
13805;SDS011;6974;53.606;9.872;2024-01-10T11:36:08;13.93;;;10.70;;
13805;SDS011;6974;53.606;9.872;2024-01-10T11:38:40;15.03;;;10.47;;
13805;SDS011;6974;53.606;9.872;2024-01-10T11:41:08;13.50;;;10.63;;
13805;SDS011;6974;53.606;9.872;2024-01-10T11:43:38;15.40;;;11.10;;
13805;SDS011;6974;53.606;9.872;2024-01-10T11:46:05;14.80;;;10.53;;
13805;SDS011;6974;53.606;9.872;2024-01-10T11:48:36;15.70;;;10.83;;
13805;SDS011;6974;53.606;9.872;2024-01-10T11:51:04;15.33;;;11.00;;
13805;SDS011;6974;53.606;9.872;2024-01-10T11:53:41;13.60;;;9.60;;
13805;SDS011;6974;53.606;9.872;2024-01-10T11:56:11;12.87;;;9.67;;
13805;SDS011;6974;53.606;9.872;2024-01-10T11:58:54;13.10;;;9.77;;
13805;SDS011;6974;53.606;9.872;2024-01-10T12:01:26;12.13;;;8.87;;
13805;SDS011;6974;53.606;9.872;2024-01-10T12:03:53;12.07;;;8.90;;
13805;SDS011;6974;53.606;9.872;2024-01-10T12:06:25;12.53;;;9.87;;
13805;SDS011;6974;53.606;9.872;2024-01-10T12:08:53;12.10;;;10.17;;
13805;SDS011;6974;53.606;9.872;2024-01-10T12:11:20;11.93;;;9.57;;
13805;SDS011;6974;53.606;9.872;2024-01-10T12:13:47;13.90;;;10.13;;
13805;SDS011;6974;53.606;9.872;2024-01-10T12:16:15;12.40;;;9.93;;
13805;SDS011;6974;53.606;9.872;2024-01-10T12:18:42;14.80;;;10.87;;
13805;SDS011;6974;53.606;9.872;2024-01-10T12:21:10;13.33;;;10.30;;
13805;SDS011;6974;53.606;9.872;2024-01-10T12:23:38;11.57;;;9.30;;
13805;SDS011;6974;53.606;9.872;2024-01-10T12:26:08;11.73;;;9.37;;
13805;SDS011;6974;53.606;9.872;2024-01-10T12:28:38;10.60;;;9.13;;
13805;SDS011;6974;53.606;9.872;2024-01-10T12:31:05;10.13;;;8.73;;
13805;SDS011;6974;53.606;9.872;2024-01-10T12:33:33;11.70;;;8.80;;
13805;SDS011;6974;53.606;9.872;2024-01-10T12:36:03;10.23;;;8.03;;
13805;SDS011;6974;53.606;9.872;2024-01-10T12:38:34;11.40;;;8.47;;
13805;SDS011;6974;53.606;9.872;2024-01-10T12:41:02;9.60;;;8.20;;
13805;SDS011;6974;53.606;9.872;2024-01-10T12:43:32;10.23;;;8.20;;
13805;SDS011;6974;53.606;9.872;2024-01-10T12:46:02;10.00;;;7.23;;
13805;SDS011;6974;53.606;9.872;2024-01-10T12:48:30;9.67;;;7.07;;
13805;SDS011;6974;53.606;9.872;2024-01-10T12:50:58;7.97;;;7.10;;
13805;SDS011;6974;53.606;9.872;2024-01-10T12:53:27;8.63;;;6.53;;
13805;SDS011;6974;53.606;9.872;2024-01-10T12:55:54;9.53;;;7.73;;
13805;SDS011;6974;53.606;9.872;2024-01-10T12:58:21;9.80;;;7.23;;
13805;SDS011;6974;53.606;9.872;2024-01-10T13:00:50;8.37;;;6.97;;
13805;SDS011;6974;53.606;9.872;2024-01-10T13:03:18;10.93;;;7.87;;
13805;SDS011;6974;53.606;9.872;2024-01-10T13:05:45;9.83;;;6.83;;
13805;SDS011;6974;53.606;9.872;2024-01-10T13:08:12;9.53;;;6.93;;
13805;SDS011;6974;53.606;9.872;2024-01-10T13:10:41;8.50;;;6.50;;
13805;SDS011;6974;53.606;9.872;2024-01-10T13:13:08;9.30;;;6.83;;
13805;SDS011;6974;53.606;9.872;2024-01-10T13:15:35;11.10;;;7.47;;
13805;SDS011;6974;53.606;9.872;2024-01-10T13:18:04;10.70;;;7.07;;
13805;SDS011;6974;53.606;9.872;2024-01-10T13:20:32;9.13;;;7.33;;
13805;SDS011;6974;53.606;9.872;2024-01-10T13:22:58;10.43;;;7.40;;
13805;SDS011;6974;53.606;9.872;2024-01-10T13:25:26;9.73;;;7.50;;
13805;SDS011;6974;53.606;9.872;2024-01-10T13:27:55;10.17;;;7.87;;
13805;SDS011;6974;53.606;9.872;2024-01-10T13:30:23;9.73;;;8.03;;
13805;SDS011;6974;53.606;9.872;2024-01-10T13:32:50;8.87;;;7.40;;
13805;SDS011;6974;53.606;9.872;2024-01-10T13:35:19;11.20;;;7.57;;
13805;SDS011;6974;53.606;9.872;2024-01-10T13:37:47;11.17;;;7.87;;
13805;SDS011;6974;53.606;9.872;2024-01-10T13:40:15;9.03;;;7.30;;
13805;SDS011;6974;53.606;9.872;2024-01-10T13:42:42;9.00;;;7.40;;
13805;SDS011;6974;53.606;9.872;2024-01-10T13:45:11;10.17;;;7.17;;
13805;SDS011;6974;53.606;9.872;2024-01-10T13:47:38;8.57;;;7.07;;
13805;SDS011;6974;53.606;9.872;2024-01-10T13:50:06;10.80;;;8.07;;
13805;SDS011;6974;53.606;9.872;2024-01-10T13:52:36;12.13;;;7.27;;
13805;SDS011;6974;53.606;9.872;2024-01-10T13:55:03;10.67;;;7.73;;
13805;SDS011;6974;53.606;9.872;2024-01-10T13:57:34;11.37;;;8.00;;
13805;SDS011;6974;53.606;9.872;2024-01-10T14:00:02;9.97;;;7.57;;
13805;SDS011;6974;53.606;9.872;2024-01-10T14:02:35;12.73;;;8.47;;
13805;SDS011;6974;53.606;9.872;2024-01-10T14:05:02;10.33;;;8.47;;
13805;SDS011;6974;53.606;9.872;2024-01-10T14:07:31;10.00;;;7.23;;
13805;SDS011;6974;53.606;9.872;2024-01-10T14:10:00;13.10;;;8.33;;
13805;SDS011;6974;53.606;9.872;2024-01-10T14:12:28;9.03;;;7.47;;
13805;SDS011;6974;53.606;9.872;2024-01-10T14:14:55;10.67;;;8.03;;
13805;SDS011;6974;53.606;9.872;2024-01-10T14:17:25;11.03;;;7.87;;
13805;SDS011;6974;53.606;9.872;2024-01-10T14:19:52;10.60;;;8.37;;
13805;SDS011;6974;53.606;9.872;2024-01-10T14:22:18;11.53;;;9.03;;
13805;SDS011;6974;53.606;9.872;2024-01-10T14:24:46;11.97;;;8.60;;
13805;SDS011;6974;53.606;9.872;2024-01-10T14:27:14;10.37;;;8.57;;
13805;SDS011;6974;53.606;9.872;2024-01-10T14:29:41;9.50;;;8.07;;
13805;SDS011;6974;53.606;9.872;2024-01-10T14:32:08;10.27;;;7.93;;
13805;SDS011;6974;53.606;9.872;2024-01-10T14:34:36;9.80;;;7.97;;
13805;SDS011;6974;53.606;9.872;2024-01-10T14:37:05;11.43;;;8.83;;
13805;SDS011;6974;53.606;9.872;2024-01-10T14:39:32;11.13;;;8.40;;
13805;SDS011;6974;53.606;9.872;2024-01-10T14:41:59;10.33;;;8.37;;
13805;SDS011;6974;53.606;9.872;2024-01-10T14:44:28;9.47;;;8.13;;
13805;SDS011;6974;53.606;9.872;2024-01-10T14:46:55;11.60;;;9.47;;
13805;SDS011;6974;53.606;9.872;2024-01-10T14:49:22;12.33;;;9.50;;
13805;SDS011;6974;53.606;9.872;2024-01-10T14:51:49;12.27;;;9.23;;
13805;SDS011;6974;53.606;9.872;2024-01-10T14:54:16;11.23;;;9.40;;